Time;durP1;ratioP1;P1;durP2;ratioP2;P2;SDS_P1;SDS_P2;PMS_P1;PMS_P2;Temp;Humidity;BMP_temperature;BMP_pressure;BME280_temperature;BME280_humidity;BME280_pressure;Samples;Min_cycle;Max_cycle;Signal;HPM_P1;HPM_P2
2023/01/02 00:12:40;;;;;;;10.00;6.32;;;;;;;10.32;64.75;100598.91;30979705;28;97528;-68
2023/01/02 00:27:41;;;;;;;9.93;5.78;;;;;;;10.29;64.58;100605.38;30978950;28;97057;-66
2023/01/02 00:42:42;;;;;;;9.60;5.05;;;;;;;10.37;65.04;100601.94;30977822;28;96739;-66
2023/01/02 00:57:42;;;;;;;8.33;5.30;;;;;;;10.35;64.66;100571.13;30976462;28;96704;-69
2023/01/02 01:12:42;;;;;;;9.57;5.25;;;;;;;10.23;64.69;100589.19;30975211;28;96813;-68
2023/01/02 01:27:43;;;;;;;12.10;4.97;;;;;;;10.07;65.01;100563.31;30973974;28;97447;-69
2023/01/02 01:42:43;;;;;;;11.10;5.50;;;;;;;9.99;65.14;100548.09;30973316;28;97241;-68
2023/01/02 01:57:49;;;;;;;12.25;5.95;;;;;;;9.92;65.31;100539.09;30990777;28;96820;-68
2023/01/02 02:12:50;;;;;;;12.17;6.77;;;;;;;9.71;65.60;100544.78;30990081;28;96966;-67
2023/01/02 02:28:05;;;;;;;13.30;6.70;;;;;;;9.51;65.59;100512.22;30990099;28;97099;-68
2023/01/02 02:43:08;;;;;;;14.40;6.77;;;;;;;9.26;66.18;100528.81;30988692;28;96864;-68
2023/01/02 02:58:11;;;;;;;12.90;7.40;;;;;;;9.24;66.33;100511.34;30986547;28;97403;-67
2023/01/02 03:13:26;;;;;;;13.33;7.17;;;;;;;8.95;66.95;100472.56;30986159;28;97408;-68
2023/01/02 03:28:28;;;;;;;13.90;7.60;;;;;;;8.83;67.63;100487.06;30984028;28;96624;-69
2023/01/02 03:43:31;;;;;;;13.80;7.87;;;;;;;8.75;68.15;100475.38;30980458;28;96767;-66
2023/01/02 03:58:55;;;;;;;14.00;6.97;;;;;;;8.59;68.46;100467.25;30980251;28;96686;-67
2023/01/02 04:14:02;;;;;;;12.87;6.80;;;;;;;8.53;69.04;100450.13;30978981;28;96768;-68
2023/01/02 04:29:03;;;;;;;10.57;6.10;;;;;;;8.66;69.39;100440.94;30977178;28;97508;-68
2023/01/02 04:44:03;;;;;;;11.32;6.28;;;;;;;8.74;69.29;100425.06;30974496;28;97253;-67
2023/01/02 04:59:04;;;;;;;9.65;5.60;;;;;;;8.77;69.48;100420.28;30972959;28;97732;-67
2023/01/02 05:14:04;;;;;;;15.10;5.07;;;;;;;8.92;69.91;100417.09;30971013;28;97507;-68
2023/01/02 05:29:05;;;;;;;14.93;4.82;;;;;;;9.12;69.81;100423.06;30986232;28;96737;-69
2023/01/02 05:44:09;;;;;;;7.97;3.83;;;;;;;9.22;69.43;100407.84;30991268;28;96778;-66
2023/01/02 05:59:12;;;;;;;5.57;3.57;;;;;;;9.46;68.94;100387.72;30970461;28;98397;-70
2023/01/02 06:14:12;;;;;;;9.93;5.13;;;;;;;9.33;68.77;100382.81;30989755;28;96718;-65
2023/01/02 06:29:14;;;;;;;12.55;6.65;;;;;;;8.99;68.77;100380.94;30980650;28;97095;-68
2023/01/02 06:44:14;;;;;;;9.67;4.47;;;;;;;8.90;68.96;100385.34;30979631;28;97123;-68
2023/01/02 06:59:14;;;;;;;7.70;4.13;;;;;;;9.21;69.52;100366.28;30982943;28;96909;-67
2023/01/02 07:14:15;;;;;;;6.95;3.70;;;;;;;9.48;69.01;100375.09;30982869;28;96742;-67
2023/01/02 07:29:15;;;;;;;5.93;3.72;;;;;;;9.64;68.08;100382.31;30984185;28;96754;-69
2023/01/02 07:44:16;;;;;;;11.82;4.63;;;;;;;9.36;67.86;100385.16;30976375;28;97654;-67
2023/01/02 07:59:16;;;;;;;7.43;4.85;;;;;;;9.51;67.90;100379.25;30976049;28;96727;-68
2023/01/02 08:14:17;;;;;;;12.10;4.70;;;;;;;9.96;67.45;100384.28;30979433;28;96903;-71
2023/01/02 08:29:17;;;;;;;11.32;5.50;;;;;;;10.33;66.86;100385.69;30980556;28;97497;-71
2023/01/02 08:44:18;;;;;;;8.30;4.22;;;;;;;13.02;65.58;100378.88;30984982;28;96738;-79
2023/01/02 08:59:18;;;;;;;9.23;4.50;;;;;;;14.05;60.41;100395.13;30980261;28;97431;-69
2023/01/02 09:14:20;;;;;;;7.90;4.80;;;;;;;15.66;57.83;100367.00;30995602;28;96805;-72
2023/01/02 09:29:21;;;;;;;7.97;3.80;;;;;;;20.89;49.91;100364.88;30997740;28;96846;-71
2023/01/02 09:44:43;;;;;;;10.98;4.38;;;;;;;26.24;38.07;100357.34;30992614;28;96802;-71
2023/01/02 09:59:43;;;;;;;7.67;3.90;;;;;;;21.57;37.39;100360.72;30991796;28;96835;-68
2023/01/02 10:14:58;;;;;;;12.43;5.45;;;;;;;21.28;42.02;100373.31;30987716;28;97352;-66
2023/01/02 10:30:16;;;;;;;12.77;5.40;;;;;;;22.15;38.01;100360.75;30989483;28;96711;-67
2023/01/02 10:45:17;;;;;;;10.73;4.60;;;;;;;20.03;40.60;100363.19;30976846;28;97197;-66
2023/01/02 11:00:17;;;;;;;10.20;5.35;;;;;;;17.66;43.84;100382.53;30981371;28;96836;-68
2023/01/02 11:15:29;;;;;;;6.75;3.30;;;;;;;15.84;47.02;100361.09;30974190;28;97413;-68
2023/01/02 11:30:37;;;;;;;;;;;;;;;15.28;49.23;100306.53;30970887;28;97106;-67
2023/01/02 11:45:38;;;;;;;39.17;15.37;;;;;;;14.70;51.02;100317.47;30970557;28;98301;-66
2023/01/02 12:00:40;;;;;;;17.23;6.45;;;;;;;14.26;53.21;100308.63;30974230;28;97850;-66
2023/01/02 12:16:00;;;;;;;;;;;;;;;13.71;54.84;100306.41;30976495;28;96976;-68
2023/01/02 12:31:27;;;;;;;9.07;4.53;;;;;;;13.44;56.62;100323.97;30975351;28;97544;-71
2023/01/02 12:46:40;;;;;;;10.30;4.37;;;;;;;13.34;57.37;100321.53;30968574;28;97453;-68
2023/01/02 13:02:04;;;;;;;13.33;5.30;;;;;;;13.52;57.90;100313.16;30977167;28;96787;-67
2023/01/02 13:17:15;;;;;;;11.67;5.53;;;;;;;13.39;58.59;100294.25;30997805;28;97439;-68
2023/01/02 13:32:26;;;;;;;11.70;6.23;;;;;;;13.56;58.99;100302.06;30967597;28;96840;-69
2023/01/02 13:47:36;;;;;;;11.47;5.97;;;;;;;13.34;59.63;100320.69;30970613;28;98796;-67
2023/01/02 14:02:37;;;;;;;11.37;6.70;;;;;;;13.11;60.23;100332.34;30988870;28;97644;-67
2023/01/02 14:17:54;;;;;;;15.93;7.32;;;;;;;12.74;61.24;100342.06;30986542;28;96974;-75
2023/01/02 14:32:56;;;;;;;11.40;5.67;;;;;;;13.41;60.80;100340.41;30991917;28;96769;-66
2023/01/02 14:48:05;;;;;;;12.40;5.73;;;;;;;12.46;61.12;100344.44;30980464;28;97145;-68
2023/01/02 15:03:27;;;;;;;8.40;5.47;;;;;;;11.93;62.00;100354.94;30982779;28;97336;-71
2023/01/02 15:18:32;;;;;;;10.50;5.67;;;;;;;11.58;62.45;100375.78;30981047;28;98454;-70
2023/01/02 15:33:33;;;;;;;12.03;6.17;;;;;;;11.22;63.76;100384.22;31034238;28;96885;-70
2023/01/02 15:48:35;;;;;;;11.03;5.67;;;;;;;10.99;63.95;100422.25;31023584;28;97189;-67
2023/01/02 16:03:38;;;;;;;11.87;6.40;;;;;;;10.76;64.91;100395.44;30988258;28;97526;-65
2023/01/02 16:18:42;;;;;;;9.33;5.73;;;;;;;10.48;65.46;100399.22;30970293;28;96792;-66
2023/01/02 16:33:44;;;;;;;10.50;6.43;;;;;;;10.26;66.33;100408.63;30968891;28;99151;-67
2023/01/02 16:48:46;;;;;;;11.47;6.77;;;;;;;10.09;67.09;100398.94;30968431;28;96958;-66
2023/01/02 17:03:46;;;;;;;16.50;7.28;;;;;;;9.91;67.04;100418.50;30969227;28;96730;-67
2023/01/02 17:18:47;;;;;;;13.48;7.03;;;;;;;9.94;67.70;100393.41;30974837;28;96767;-64
2023/01/02 17:33:47;;;;;;;18.02;8.98;;;;;;;9.94;67.74;100409.38;30991365;28;96682;-67
2023/01/02 17:48:47;;;;;;;18.58;8.75;;;;;;;9.81;67.92;100431.09;30990079;28;96772;-68
2023/01/02 18:03:48;;;;;;;18.45;10.75;;;;;;;9.70;67.85;100410.91;30987200;28;96726;-74
2023/01/02 18:18:49;;;;;;;22.13;10.80;;;;;;;9.56;68.72;100416.84;30976784;28;97046;-67
2023/01/02 18:33:57;;;;;;;21.33;10.83;;;;;;;9.31;68.75;100424.69;30977587;28;96868;-67
2023/01/02 18:49:10;;;;;;;22.97;11.83;;;;;;;9.08;69.29;100443.78;30926805;28;97794;-67
2023/01/02 19:04:16;;;;;;;15.17;8.73;;;;;;;9.10;69.78;100481.69;30982085;28;96648;-67
2023/01/02 19:19:20;;;;;;;11.87;6.40;;;;;;;9.27;69.40;100497.75;30980210;28;96744;-68
2023/01/02 19:34:34;;;;;;;12.67;6.40;;;;;;;9.41;68.59;100467.94;30987839;28;97373;-70
2023/01/02 19:49:34;;;;;;;;;;;;;;;9.54;68.50;100511.91;30965828;28;97570;-68
2023/01/02 20:04:35;;;;;;;11.23;6.60;;;;;;;9.51;67.82;100512.22;30964536;28;97645;-71
2023/01/02 20:19:37;;;;;;;9.05;6.07;;;;;;;9.54;67.98;100539.34;30965432;28;97408;-70
2023/01/02 20:34:38;;;;;;;7.47;4.60;;;;;;;10.07;67.15;100544.66;30955004;28;98133;-68
2023/01/02 20:49:39;;;;;;;7.47;4.95;;;;;;;10.24;66.43;100542.94;30960426;28;97392;-68
2023/01/02 21:04:40;;;;;;;12.13;6.13;;;;;;;10.29;65.89;100553.91;31006439;28;97408;-68
2023/01/02 21:19:40;;;;;;;9.25;5.55;;;;;;;10.41;65.54;100568.66;31003988;28;97792;-67
2023/01/02 21:34:40;;;;;;;11.65;6.38;;;;;;;10.06;65.72;100566.94;31015260;28;97276;-68
2023/01/02 21:49:41;;;;;;;11.02;5.82;;;;;;;9.82;65.74;100571.94;31011414;28;97946;-68
2023/01/02 22:04:42;;;;;;;9.43;5.20;;;;;;;9.77;66.05;100586.72;31006391;28;96675;-68
2023/01/02 22:19:42;;;;;;;9.30;5.47;;;;;;;9.90;66.44;100602.28;30991898;28;97265;-67
2023/01/02 22:34:43;;;;;;;10.27;5.97;;;;;;;9.98;66.14;100605.00;30990016;28;97246;-67
2023/01/02 22:49:44;;;;;;;10.43;5.97;;;;;;;10.00;66.03;100603.00;30988976;28;97428;-67
2023/01/02 23:04:44;;;;;;;10.53;5.50;;;;;;;9.88;65.50;100596.28;30988642;28;97448;-66
2023/01/02 23:19:45;;;;;;;10.32;5.40;;;;;;;9.78;65.91;100613.16;30985015;28;96679;-67
2023/01/02 23:34:45;;;;;;;11.93;6.80;;;;;;;9.77;65.82;100632.81;30985523;28;96805;-67
2023/01/02 23:49:46;;;;;;;7.82;5.70;;;;;;;10.08;65.36;100674.94;30983781;28;97818;-67
